Terminal Aerodrome Forecast
Issued by NWS

Home | Current Version | Previous Version | Text Only | Print | Product List | Glossary On
Versions: 1 2 3 4 5 6 7 8 9 10 11 12 13 14 15 16 17 18 19 20 21 22 23 24
000
FTUS44 KFWD 140900 AAA
TAFFTW
TAF AMD
KFTW 140900Z 1409/1506 20007KT P6SM FEW300
     FM141500 24009KT P6SM SCT090
     FM142100 24009KT P6SM VCTS SCT090CB
     FM150200 VRB06KT P6SM SCT090=

USA.gov is the U.S. government's official web portal to all federal, state and local government web resources and services.